Tetouan, Morocco
Current Conditions -  °F | °C
As of 3:00 AM on Thursday 27 Nov 2014 (Local Time) from GMTN Reporting Station
NA  
Wind Chill: 59°   Ceiling: NA
Heat Index: 59°   Visibility: NA
Dew Point: 55°   Wind: 3mph
Humidity: 88%   Direction: 130°SE
Pressure: 29.68"   Gusts: NA
Location:  35.58°N, 5.37°W
Report Text: GMTN 270200Z AUTO 13003KT 090V190 R24///// /// 15/13 Q1005
Loading
Personal Weather Stations






























Interactive Weather Map New forecast layout! Learn more

10-Day Weather Forecast

Advertisements
Track Severe Weather on mobile